createdAt,value
2022-09-14T00:01:26.549Z,76.98
2022-09-14T00:04:05.922Z,76.51
2022-09-14T00:06:34.154Z,76.29
2022-09-14T00:09:01.468Z,76.23
2022-09-14T00:11:31.434Z,76.42
2022-09-14T00:14:00.122Z,76.54
2022-09-14T00:16:30.194Z,76.13
2022-09-14T00:19:06.440Z,76.26
2022-09-14T00:21:38.831Z,76.62
2022-09-14T00:24:07.414Z,76.35
2022-09-14T00:26:35.185Z,76.32
2022-09-14T00:29:05.603Z,76.14
2022-09-14T00:31:34.955Z,76.15
2022-09-14T00:34:03.702Z,76.28
2022-09-14T00:36:31.663Z,76.54
2022-09-14T00:39:00.921Z,76.85
2022-09-14T00:41:32.311Z,77.43
2022-09-14T00:44:07.460Z,77.38
2022-09-14T00:46:44.743Z,77.38
2022-09-14T00:49:20.960Z,77.41
2022-09-14T00:51:57.061Z,77.50
2022-09-14T00:54:24.217Z,77.57
2022-09-14T00:56:51.728Z,77.95
2022-09-14T00:59:25.851Z,77.44
2022-09-14T01:01:52.764Z,77.98
2022-09-14T01:04:19.990Z,78.30
2022-09-14T01:07:01.817Z,78.42
2022-09-14T01:09:40.537Z,78.20
2022-09-14T01:12:13.853Z,77.82
2022-09-14T01:15:18.003Z,78.31
2022-09-14T01:18:21.279Z,78.30
2022-09-14T01:21:04.772Z,78.70
2022-09-14T01:23:47.843Z,78.53
2022-09-14T01:26:30.024Z,78.25
2022-09-14T01:29:26.715Z,78.02
2022-09-14T01:32:15.693Z,78.04
2022-09-14T01:35:15.668Z,79.01
2022-09-14T01:38:11.881Z,78.43
2022-09-14T01:40:43.025Z,78.14
2022-09-14T01:43:38.174Z,77.97
2022-09-14T01:46:16.593Z,77.59
2022-09-14T01:48:50.896Z,77.44
2022-09-14T01:51:28.531Z,77.36
2022-09-14T01:54:04.126Z,77.13
2022-09-14T01:56:37.675Z,77.64
2022-09-14T01:59:17.106Z,77.53
2022-09-14T02:01:50.671Z,77.99
2022-09-14T02:04:45.310Z,77.21
2022-09-14T02:07:12.257Z,76.98
2022-09-14T02:09:39.663Z,76.81
2022-09-14T02:12:07.156Z,76.72
2022-09-14T02:14:34.066Z,76.49
2022-09-14T02:17:00.906Z,76.84
2022-09-14T02:19:33.688Z,76.92
2022-09-14T02:22:00.593Z,77.02
2022-09-14T02:24:28.459Z,76.92
2022-09-14T02:26:56.808Z,76.69
2022-09-14T02:29:23.672Z,76.67
2022-09-14T02:32:34.433Z,76.36
2022-09-14T02:35:19.316Z,76.71
2022-09-14T02:38:13.849Z,76.79
2022-09-14T02:40:58.567Z,77.00
2022-09-14T02:43:38.527Z,76.72
2022-09-14T02:46:43.715Z,76.56
2022-09-14T02:49:28.634Z,76.75
2022-09-14T02:52:18.624Z,76.50
2022-09-14T02:55:09.171Z,77.10
2022-09-14T02:58:00.903Z,77.10
2022-09-14T03:00:29.159Z,77.00
2022-09-14T03:02:56.175Z,76.73
2022-09-14T03:05:23.535Z,77.00
2022-09-14T03:07:50.560Z,77.41
2022-09-14T03:10:17.422Z,77.25
2022-09-14T03:12:44.218Z,77.40
2022-09-14T03:15:11.484Z,77.12
2022-09-14T03:17:38.359Z,77.00
2022-09-14T03:20:05.718Z,77.15
2022-09-14T03:22:33.176Z,77.24
2022-09-14T03:24:59.940Z,77.58
2022-09-14T03:27:26.762Z,77.92
2022-09-14T03:29:53.599Z,77.73
2022-09-14T03:32:20.398Z,77.63
2022-09-14T03:34:47.195Z,78.04
2022-09-14T03:37:14.025Z,77.65
2022-09-14T03:39:40.836Z,77.89
2022-09-14T03:42:07.548Z,77.77
2022-09-14T03:44:34.412Z,77.79
2022-09-14T03:47:01.250Z,78.39
2022-09-14T03:49:28.017Z,78.66
2022-09-14T03:51:59.105Z,79.03
2022-09-14T03:54:27.346Z,79.01
2022-09-14T03:56:54.365Z,78.72
2022-09-14T03:59:21.902Z,78.37
2022-09-14T04:01:48.709Z,78.90
2022-09-14T04:04:16.351Z,78.86
2022-09-14T04:06:43.164Z,79.45
2022-09-14T04:09:10.133Z,79.86
2022-09-14T04:11:36.966Z,79.73
2022-09-14T04:14:05.441Z,79.58
2022-09-14T04:16:32.470Z,79.96
2022-09-14T04:18:59.482Z,79.63
2022-09-14T04:21:26.610Z,79.43
2022-09-14T04:26:42.061Z,80.22
2022-09-14T04:29:10.678Z,79.75
2022-09-14T04:31:37.643Z,79.52
2022-09-14T04:34:05.387Z,80.08
2022-09-14T04:36:32.647Z,79.71
2022-09-14T04:39:01.494Z,79.51
2022-09-14T04:41:30.374Z,79.86
2022-09-14T04:43:58.129Z,80.41
2022-09-14T04:46:30.635Z,80.56
2022-09-14T04:48:58.360Z,80.53
2022-09-14T04:51:28.601Z,80.74
2022-09-14T04:53:57.291Z,80.25
2022-09-14T04:56:25.358Z,80.15
2022-09-14T04:58:55.328Z,80.58
2022-09-14T05:01:24.476Z,81.35
2022-09-14T05:03:52.342Z,81.18
2022-09-14T05:06:21.491Z,81.44
2022-09-14T05:08:49.622Z,81.00
2022-09-14T05:11:20.756Z,81.20
2022-09-14T05:13:50.219Z,81.39
2022-09-14T05:16:25.929Z,81.39
2022-09-14T05:18:56.024Z,81.68
2022-09-14T05:21:24.300Z,81.87
2022-09-14T05:24:00.167Z,81.58
2022-09-14T05:26:28.600Z,81.25
2022-09-14T05:28:57.947Z,81.36
2022-09-14T05:31:26.337Z,81.30
2022-09-14T05:33:54.195Z,81.24
2022-09-14T05:36:21.805Z,81.61
2022-09-14T05:38:48.711Z,81.83
2022-09-14T05:41:16.530Z,81.91
2022-09-14T05:43:44.340Z,81.46
2022-09-14T05:46:22.339Z,81.50
2022-09-14T05:48:51.879Z,81.83
2022-09-14T05:51:24.940Z,81.65
2022-09-14T05:53:53.730Z,81.42
2022-09-14T05:56:22.636Z,82.04
2022-09-14T05:58:50.074Z,82.23
2022-09-14T06:01:20.364Z,81.50
2022-09-14T06:03:48.597Z,81.15
2022-09-14T06:06:18.534Z,81.12
2022-09-14T06:08:46.208Z,80.99
2022-09-14T06:11:16.464Z,81.32
2022-09-14T06:13:44.607Z,81.89
2022-09-14T06:16:14.369Z,81.94
2022-09-14T06:18:42.495Z,81.87
2022-09-14T06:21:11.388Z,82.06
2022-09-14T06:23:38.538Z,82.04
2022-09-14T06:26:05.899Z,81.94
2022-09-14T06:28:34.013Z,81.92
2022-09-14T06:31:03.570Z,81.84
2022-09-14T06:33:32.008Z,82.26
2022-09-14T06:36:12.739Z,82.31
2022-09-14T06:38:40.994Z,81.91
2022-09-14T06:41:09.953Z,81.43
2022-09-14T06:43:39.598Z,81.29
2022-09-14T06:46:11.116Z,81.03
2022-09-14T06:48:40.764Z,80.92
2022-09-14T06:51:31.006Z,81.09
2022-09-14T06:54:02.474Z,80.64
2022-09-14T06:56:32.372Z,80.54
2022-09-14T06:58:59.684Z,80.48
2022-09-14T07:01:27.800Z,80.34
2022-09-14T07:03:55.051Z,80.74
2022-09-14T07:06:25.022Z,80.97
2022-09-14T07:08:53.509Z,81.06
2022-09-14T07:11:23.666Z,80.85
2022-09-14T07:13:50.768Z,80.67
2022-09-14T07:16:17.623Z,80.57
2022-09-14T07:18:44.659Z,81.25
2022-09-14T07:21:17.137Z,81.65
2022-09-14T07:23:45.555Z,81.62
2022-09-14T07:26:27.412Z,81.19
2022-09-14T07:28:57.540Z,81.07
2022-09-14T07:31:33.091Z,80.42
2022-09-14T07:34:04.623Z,80.41
2022-09-14T07:36:35.250Z,80.02
2022-09-14T07:39:07.131Z,79.65
2022-09-14T07:41:34.893Z,79.91
2022-09-14T07:44:04.009Z,80.14
2022-09-14T07:46:33.381Z,80.12
2022-09-14T07:49:02.294Z,79.55
2022-09-14T07:51:30.920Z,80.23
2022-09-14T07:53:59.464Z,80.29
2022-09-14T07:56:26.359Z,80.14
2022-09-14T07:59:11.376Z,79.65
2022-09-14T08:01:39.328Z,79.49
2022-09-14T08:04:06.642Z,80.05
2022-09-14T08:06:33.714Z,79.93
2022-09-14T08:09:00.595Z,80.11
2022-09-14T08:11:32.355Z,79.69
2022-09-14T08:14:01.702Z,79.47
2022-09-14T08:16:30.253Z,80.17
2022-09-14T08:19:03.429Z,80.34
2022-09-14T08:21:32.308Z,80.16
2022-09-14T08:24:02.499Z,79.30
2022-09-14T08:26:29.383Z,79.13
2022-09-14T08:28:57.155Z,79.13
2022-09-14T08:31:26.295Z,79.77
2022-09-14T08:33:56.621Z,79.07
2022-09-14T08:36:25.933Z,78.94
2022-09-14T08:38:52.926Z,77.87
2022-09-14T08:41:29.764Z,78.30
2022-09-14T08:44:06.088Z,78.59
2022-09-14T08:46:40.608Z,78.13
2022-09-14T08:49:30.272Z,77.35
2022-09-14T08:51:57.639Z,78.14
2022-09-14T08:54:25.239Z,77.71
2022-09-14T08:57:20.098Z,78.02
2022-09-14T09:00:20.660Z,78.61
2022-09-14T09:02:56.733Z,78.15
2022-09-14T09:05:40.208Z,77.16
2022-09-14T09:08:24.893Z,77.27
2022-09-14T09:10:54.442Z,77.71
2022-09-14T09:13:26.797Z,77.05
2022-09-14T09:15:58.300Z,76.19
2022-09-14T09:18:55.508Z,76.73
2022-09-14T09:21:45.456Z,76.53
2022-09-14T09:24:34.173Z,76.04
2022-09-14T09:27:10.967Z,75.41
2022-09-14T09:29:38.455Z,75.60
2022-09-14T09:32:08.971Z,76.41
2022-09-14T09:34:36.602Z,76.48
2022-09-14T09:37:03.527Z,76.24
2022-09-14T09:39:31.861Z,75.55
2022-09-14T09:42:03.368Z,75.68
2022-09-14T09:44:30.384Z,75.51
2022-09-14T09:47:01.104Z,74.84
2022-09-14T09:49:38.640Z,74.89
2022-09-14T09:52:16.973Z,75.04
2022-09-14T09:54:51.575Z,74.67
2022-09-14T09:57:38.705Z,74.75
2022-09-14T10:00:29.902Z,74.50
2022-09-14T10:02:57.427Z,74.01
2022-09-14T10:05:29.171Z,74.88
2022-09-14T10:07:59.514Z,75.03
2022-09-14T10:10:43.142Z,74.32
2022-09-14T10:13:30.273Z,73.65
2022-09-14T10:16:30.208Z,73.95
2022-09-14T10:18:59.492Z,74.87
2022-09-14T10:21:26.589Z,74.53
2022-09-14T10:24:17.250Z,73.38
2022-09-14T10:26:44.295Z,73.38
2022-09-14T10:29:28.951Z,73.21
2022-09-14T10:32:11.109Z,72.89
2022-09-14T10:34:38.105Z,73.13
2022-09-14T10:37:21.326Z,73.58
2022-09-14T10:40:16.894Z,73.46
2022-09-14T10:43:13.431Z,73.30
2022-09-14T10:45:46.882Z,73.89
2022-09-14T10:48:25.606Z,73.78
2022-09-14T10:51:02.791Z,73.52
2022-09-14T10:53:43.010Z,74.37
2022-09-14T10:56:19.923Z,72.23
2022-09-14T10:58:57.007Z,72.54
2022-09-14T11:01:42.181Z,72.23
2022-09-14T11:04:43.081Z,73.15
2022-09-14T11:07:48.290Z,72.24
2022-09-14T11:10:28.083Z,71.68
2022-09-14T11:13:25.330Z,71.53
2022-09-14T11:16:16.382Z,71.60
2022-09-14T11:19:01.718Z,71.78
2022-09-14T11:22:01.124Z,70.41
2022-09-14T11:24:53.622Z,69.94
2022-09-14T11:27:29.788Z,70.91
2022-09-14T11:30:02.975Z,69.22
2022-09-14T11:32:41.632Z,70.07
2022-09-14T11:35:29.783Z,71.43
2022-09-14T11:38:01.035Z,71.33
2022-09-14T11:40:41.963Z,69.93
2022-09-14T11:43:14.886Z,70.29
2022-09-14T11:45:46.857Z,70.74
2022-09-14T11:48:46.470Z,69.96
2022-09-14T11:51:22.582Z,70.71
2022-09-14T11:53:51.065Z,71.15
2022-09-14T11:56:27.011Z,69.42
2022-09-14T11:58:59.445Z,67.79
2022-09-14T12:01:38.333Z,68.71
2022-09-14T12:04:17.599Z,69.67
2022-09-14T12:06:48.497Z,69.32
2022-09-14T12:09:20.983Z,69.58
2022-09-14T12:11:53.447Z,69.79
2022-09-14T12:14:32.282Z,67.92
2022-09-14T12:17:35.688Z,68.52
2022-09-14T12:20:21.948Z,68.85
2022-09-14T12:22:50.381Z,65.97
2022-09-14T12:25:23.342Z,67.52
2022-09-14T12:27:50.642Z,67.13
2022-09-14T12:30:55.533Z,67.82
2022-09-14T12:33:31.545Z,67.47
2022-09-14T12:36:01.240Z,66.38
2022-09-14T12:38:31.014Z,62.96
2022-09-14T12:41:26.899Z,64.99
2022-09-14T12:43:55.426Z,64.57
2022-09-14T12:46:22.324Z,64.75
2022-09-14T12:48:49.501Z,64.84
2022-09-14T12:51:29.528Z,65.51
2022-09-14T12:54:02.159Z,64.67
2022-09-14T12:56:48.560Z,65.44
2022-09-14T12:59:42.783Z,66.02
2022-09-14T13:02:40.749Z,63.93
2022-09-14T13:05:16.020Z,62.59
2022-09-14T13:07:43.566Z,63.17
2022-09-14T13:10:20.807Z,63.39
2022-09-14T13:12:49.087Z,61.21
2022-09-14T13:15:23.446Z,60.70
2022-09-14T13:18:05.424Z,60.37
2022-09-14T13:20:35.278Z,59.47
2022-09-14T13:23:02.774Z,57.94
2022-09-14T13:25:33.388Z,59.61
2022-09-14T13:28:13.605Z,57.99
2022-09-14T13:30:44.580Z,59.04
2022-09-14T13:33:17.735Z,58.55
2022-09-14T13:35:57.444Z,60.01
2022-09-14T13:38:31.031Z,59.51
2022-09-14T13:41:08.269Z,60.84
2022-09-14T13:43:35.483Z,61.73
2022-09-14T13:46:02.758Z,60.20
2022-09-14T13:48:29.880Z,59.10
2022-09-14T13:50:56.884Z,59.08
2022-09-14T13:53:40.878Z,60.28
2022-09-14T13:56:34.084Z,59.03
2022-09-14T13:59:12.552Z,60.66
2022-09-14T14:01:44.164Z,59.95
2022-09-14T14:04:40.397Z,61.43
2022-09-14T14:07:14.973Z,59.46
2022-09-14T14:09:46.287Z,62.50
2022-09-14T14:12:23.611Z,61.18
2022-09-14T14:14:55.774Z,62.94
2022-09-14T14:17:25.896Z,63.22
2022-09-14T14:19:55.028Z,61.45
2022-09-14T14:22:37.633Z,62.06
2022-09-14T14:25:20.439Z,62.01
2022-09-14T14:27:48.546Z,62.83
2022-09-14T14:30:25.945Z,61.82
2022-09-14T14:32:55.040Z,62.29
2022-09-14T14:35:25.184Z,62.11
2022-09-14T14:37:52.562Z,61.27
2022-09-14T14:40:20.019Z,62.70
2022-09-14T14:42:49.430Z,60.07
2022-09-14T14:45:19.803Z,59.08
2022-09-14T14:47:47.677Z,57.37
2022-09-14T14:50:36.223Z,59.09
2022-09-14T14:53:03.886Z,59.94
2022-09-14T14:55:32.112Z,58.13
2022-09-14T14:58:04.687Z,58.11
2022-09-14T15:00:34.660Z,56.87
2022-09-14T15:03:02.006Z,57.75
2022-09-14T15:05:29.041Z,58.59
2022-09-14T15:07:56.317Z,58.98
2022-09-14T15:10:25.919Z,56.98
2022-09-14T15:12:52.832Z,60.54
2022-09-14T15:15:26.580Z,61.00
2022-09-14T15:17:54.717Z,60.11
2022-09-14T15:20:22.658Z,60.57
2022-09-14T15:22:50.276Z,60.98
2022-09-14T15:25:19.055Z,61.44
2022-09-14T15:27:46.772Z,57.48
2022-09-14T15:30:14.815Z,60.45
2022-09-14T15:32:41.789Z,58.86
2022-09-14T15:35:13.177Z,61.05
2022-09-14T15:37:41.233Z,59.98
2022-09-14T15:40:09.643Z,59.83
2022-09-14T15:42:36.659Z,60.45
2022-09-14T15:45:05.002Z,61.49
2022-09-14T15:47:36.199Z,63.87
2022-09-14T15:50:05.487Z,60.13
2022-09-14T15:52:36.172Z,62.01
2022-09-14T15:55:05.060Z,62.25
2022-09-14T15:57:32.210Z,62.16
2022-09-14T15:59:59.162Z,63.61
2022-09-14T16:02:26.154Z,64.21
2022-09-14T16:04:53.143Z,64.24
2022-09-14T16:07:20.394Z,63.66
2022-09-14T16:09:47.499Z,63.17
2022-09-14T16:12:14.542Z,62.46
2022-09-14T16:14:41.897Z,62.49
2022-09-14T16:17:11.370Z,65.93
2022-09-14T16:19:38.461Z,64.42
2022-09-14T16:22:05.757Z,60.73
2022-09-14T16:24:33.670Z,62.34
2022-09-14T16:27:00.727Z,63.70
2022-09-14T16:29:27.969Z,62.05
2022-09-14T16:31:55.028Z,60.40
2022-09-14T16:34:27.798Z,60.46
2022-09-14T16:36:55.738Z,62.71
2022-09-14T16:39:26.051Z,62.86
2022-09-14T16:41:56.586Z,64.23
2022-09-14T16:44:26.205Z,62.15
2022-09-14T16:46:55.137Z,61.87
2022-09-14T16:49:26.536Z,63.22
2022-09-14T16:51:55.541Z,63.05
2022-09-14T16:54:23.958Z,62.07
2022-09-14T16:56:51.015Z,63.22
2022-09-14T16:59:19.615Z,63.57
2022-09-14T17:01:50.817Z,64.77
2022-09-14T17:04:22.267Z,63.35
2022-09-14T17:06:51.818Z,64.53
2022-09-14T17:09:25.656Z,64.14
2022-09-14T17:11:54.500Z,65.61
2022-09-14T17:14:26.305Z,63.66
2022-09-14T17:16:53.306Z,65.06
2022-09-14T17:19:21.075Z,64.82
2022-09-14T17:21:48.681Z,66.46
2022-09-14T17:24:17.570Z,65.70
2022-09-14T17:26:45.190Z,66.58
2022-09-14T17:29:12.965Z,65.42
2022-09-14T17:31:42.081Z,66.42
2022-09-14T17:34:11.046Z,66.58
2022-09-14T17:36:38.505Z,65.65
2022-09-14T17:39:11.627Z,65.83
2022-09-14T17:41:39.973Z,66.55
2022-09-14T17:44:08.105Z,66.86
2022-09-14T17:46:39.762Z,68.06
2022-09-14T17:49:13.709Z,66.68
2022-09-14T17:51:41.127Z,67.67
2022-09-14T17:54:08.260Z,68.13
2022-09-14T17:56:35.529Z,67.53
2022-09-14T17:59:13.131Z,68.31
2022-09-14T18:01:40.314Z,66.93
2022-09-14T18:04:10.440Z,67.43
2022-09-14T18:06:41.125Z,67.00
2022-09-14T18:09:14.059Z,68.32
2022-09-14T18:11:41.217Z,68.42
2022-09-14T18:14:12.817Z,68.49
2022-09-14T18:16:40.920Z,67.63
2022-09-14T18:19:08.255Z,67.82
2022-09-14T18:21:35.287Z,67.58
2022-09-14T18:24:02.705Z,66.90
2022-09-14T18:26:29.651Z,67.03
2022-09-14T18:28:56.999Z,68.34
2022-09-14T18:31:24.859Z,67.84
2022-09-14T18:33:54.843Z,68.12
2022-09-14T18:36:23.222Z,68.22
2022-09-14T18:38:51.596Z,68.51
2022-09-14T18:41:19.003Z,68.11
2022-09-14T18:43:48.882Z,68.85
2022-09-14T18:46:16.768Z,69.12
2022-09-14T18:48:44.774Z,69.02
2022-09-14T18:51:14.261Z,69.37
2022-09-14T18:53:42.031Z,69.92
2022-09-14T18:56:12.401Z,69.49
2022-09-14T18:58:47.289Z,69.47
2022-09-14T19:01:15.021Z,69.91
2022-09-14T19:03:43.228Z,70.02
2022-09-14T19:06:13.189Z,70.57
2022-09-14T19:08:40.905Z,70.25
2022-09-14T19:11:10.827Z,70.22
2022-09-14T19:13:38.227Z,70.46
2022-09-14T19:16:15.962Z,70.57
2022-09-14T19:18:44.259Z,70.89
2022-09-14T19:21:20.576Z,71.00
2022-09-14T19:23:55.090Z,71.27
2022-09-14T19:26:21.833Z,71.36
2022-09-14T19:28:49.186Z,70.95
2022-09-14T19:31:18.988Z,71.47
2022-09-14T19:33:46.321Z,71.46
2022-09-14T19:36:20.018Z,71.26
2022-09-14T19:38:48.300Z,71.72
2022-09-14T19:41:16.387Z,71.73
2022-09-14T19:43:43.867Z,71.70
2022-09-14T19:46:14.483Z,71.49
2022-09-14T19:48:42.580Z,71.52
2022-09-14T19:51:14.593Z,71.55
2022-09-14T19:53:42.613Z,71.56
2022-09-14T19:56:13.719Z,71.27
2022-09-14T19:58:43.418Z,71.51
2022-09-14T20:01:11.364Z,71.84
2022-09-14T20:03:39.158Z,71.82
2022-09-14T20:06:23.475Z,71.92
2022-09-14T20:08:57.112Z,72.09
2022-09-14T20:11:26.648Z,72.22
2022-09-14T20:13:55.656Z,72.54
2022-09-14T20:16:31.982Z,72.31
2022-09-14T20:19:03.129Z,72.46
2022-09-14T20:21:30.065Z,72.60
2022-09-14T20:24:15.050Z,72.83
2022-09-14T20:26:44.648Z,73.14
2022-09-14T20:29:11.748Z,73.24
2022-09-14T20:31:38.761Z,73.45
2022-09-14T20:34:05.946Z,73.83
2022-09-14T20:36:33.097Z,73.83
2022-09-14T20:39:00.553Z,73.59
2022-09-14T20:41:30.671Z,74.02
2022-09-14T20:43:58.136Z,74.30
2022-09-14T20:46:38.724Z,74.27
2022-09-14T20:49:08.766Z,74.27
2022-09-14T20:51:36.740Z,74.40
2022-09-14T20:54:05.267Z,74.83
2022-09-14T20:56:34.263Z,75.00
2022-09-14T20:59:03.307Z,74.86
2022-09-14T21:01:35.395Z,74.99
2022-09-14T21:04:14.148Z,75.37
2022-09-14T21:06:46.310Z,75.36
2022-09-14T21:09:14.954Z,75.41
2022-09-14T21:11:42.725Z,75.57
2022-09-14T21:14:09.773Z,75.53
2022-09-14T21:16:43.079Z,75.80
2022-09-14T21:19:19.686Z,75.71
2022-09-14T21:21:48.476Z,76.16
2022-09-14T21:24:16.604Z,76.00
2022-09-14T21:26:44.264Z,75.90
2022-09-14T21:29:18.387Z,76.12
2022-09-14T21:31:45.432Z,76.11
2022-09-14T21:34:12.839Z,76.18
2022-09-14T21:36:42.903Z,76.06
2022-09-14T21:39:15.992Z,76.33
2022-09-14T21:41:44.943Z,76.34
2022-09-14T21:44:13.068Z,76.38
2022-09-14T21:46:40.414Z,76.34
2022-09-14T21:49:07.356Z,76.30
2022-09-14T21:51:36.454Z,76.41
2022-09-14T21:54:07.703Z,76.71
2022-09-14T21:56:39.867Z,76.71
2022-09-14T21:59:09.985Z,77.06
2022-09-14T22:01:37.194Z,76.99
2022-09-14T22:04:06.539Z,77.03
2022-09-14T22:06:34.107Z,77.24
2022-09-14T22:09:01.962Z,77.18
2022-09-14T22:11:33.008Z,77.30
2022-09-14T22:14:01.449Z,77.40
2022-09-14T22:16:30.039Z,77.44
2022-09-14T22:18:59.032Z,77.30
2022-09-14T22:21:28.783Z,77.83
2022-09-14T22:23:59.577Z,77.87
2022-09-14T22:26:29.244Z,77.90
2022-09-14T22:28:58.224Z,78.16
2022-09-14T22:31:26.706Z,78.52
2022-09-14T22:33:55.699Z,78.22
2022-09-14T22:36:23.469Z,78.71
2022-09-14T22:38:50.377Z,78.96
2022-09-14T22:41:22.326Z,79.20
2022-09-14T22:43:49.634Z,78.75
2022-09-14T22:46:17.763Z,78.71
2022-09-14T22:48:45.817Z,78.70
2022-09-14T22:51:16.358Z,78.74
2022-09-14T22:53:43.563Z,78.57
2022-09-14T22:56:16.140Z,78.82
2022-09-14T22:58:43.390Z,78.67
2022-09-14T23:01:15.981Z,78.60
2022-09-14T23:03:43.867Z,78.54
2022-09-14T23:06:11.498Z,78.36
2022-09-14T23:08:38.803Z,78.27
2022-09-14T23:11:07.797Z,78.73
2022-09-14T23:13:42.217Z,78.58
2022-09-14T23:16:14.238Z,78.79
2022-09-14T23:18:41.719Z,78.83
2022-09-14T23:21:09.110Z,79.19
2022-09-14T23:23:36.201Z,79.50
2022-09-14T23:26:08.880Z,79.46
2022-09-14T23:28:37.013Z,79.70
2022-09-14T23:31:05.300Z,79.84
2022-09-14T23:33:32.533Z,79.84
2022-09-14T23:35:59.327Z,79.87
2022-09-14T23:38:26.427Z,79.99
2022-09-14T23:40:53.270Z,79.86
2022-09-14T23:43:20.489Z,80.21
2022-09-14T23:45:48.132Z,80.68
2022-09-14T23:48:15.886Z,80.40
2022-09-14T23:50:43.207Z,80.81
2022-09-14T23:53:10.361Z,80.97
2022-09-14T23:55:37.207Z,80.40
2022-09-14T23:58:04.100Z,80.04
